Kloten, North Dakota
Current Conditions -  °F | °C
As of 12:58 PM on Saturday 25 Oct 2014 (Local Time) from KRDR Reporting Station
Clear Clear  
Wind Chill: 58°   Ceiling: Unl
Heat Index: 58°   Visibility: 10mi
Dew Point: 27°   Wind: 15mph
Humidity: 30%   Direction: 320°NW
Pressure: 30.08"   Gusts: 20mph
Location:  47.8026°N, 98.1398°W
Report Text: KRDR 251758Z AUTO 32013G17KT 10SM CLR 15/M03 A3008 RMK AO2 SLP194 T01471028 10147 20028 50000
Loading
Personal Weather Stations






























Interactive Weather Map
Tropical Storm Tracking
New forecast layout! Learn more

10-Day Weather Forecast

Advertisements
Track Severe Weather on mobile